Time;durP1;ratioP1;P1;durP2;ratioP2;P2;SDS_P1;SDS_P2;PMS_P1;PMS_P2;Temp;Humidity;BMP_temperature;BMP_pressure;BME280_temperature;BME280_humidity;BME280_pressure;Samples;Min_cycle;Max_cycle;Signal;HPM_P1;HPM_P2
2022/05/29 00:01:18;;;;;;;0.75;0.20;;;;;;;15.47;97.83;99633.72;4900782;29;20048;-76
2022/05/29 00:03:46;;;;;;;0.50;0.30;;;;;;;15.36;99.44;99635.56;4890258;29;20148;-76
2022/05/29 00:06:15;;;;;;;1.27;0.30;;;;;;;15.21;99.45;99647.84;4903817;29;20502;-76
2022/05/29 00:08:46;;;;;;;0.73;0.20;;;;;;;15.10;100.00;99644.44;4883736;29;20049;-77
2022/05/29 00:11:15;;;;;;;0.77;0.32;;;;;;;15.08;100.00;99646.19;4907359;29;20275;-77
2022/05/29 00:13:45;;;;;;;0.57;0.40;;;;;;;15.01;100.00;99639.28;4899740;29;20116;-77
2022/05/29 00:16:14;;;;;;;0.98;0.30;;;;;;;15.01;100.00;99639.28;4888309;29;20422;-77
2022/05/29 00:18:44;;;;;;;1.95;0.38;;;;;;;15.02;100.00;99641.00;4881288;29;20121;-76
2022/05/29 00:21:13;;;;;;;0.35;0.20;;;;;;;14.98;99.50;99634.97;4894564;29;20056;-75
2022/05/29 00:23:44;;;;;;;0.63;0.20;;;;;;;15.04;99.44;99645.31;4904874;29;20058;-76
2022/05/29 00:26:13;;;;;;;0.20;0.20;;;;;;;15.08;99.76;99646.19;4884245;29;20052;-75
2022/05/29 00:28:42;;;;;;;0.82;0.30;;;;;;;15.12;100.00;99647.91;4890972;29;20057;-76
2022/05/29 00:31:11;;;;;;;0.30;0.20;;;;;;;14.99;97.63;99652.31;4879005;29;20052;-75
2022/05/29 00:33:39;;;;;;;1.65;0.40;;;;;;;14.86;91.28;99663.69;4890245;29;20053;-75
2022/05/29 00:36:11;;;;;;;0.10;0.10;;;;;;;14.92;91.85;99673.22;4879450;29;20531;-74
2022/05/29 00:38:42;;;;;;;0.15;0.10;;;;;;;14.77;91.33;99675.00;4883051;28;20543;-74
2022/05/29 00:41:17;;;;;;;0.65;0.20;;;;;;;14.70;92.93;99680.25;4886496;29;20725;-75
2022/05/29 00:43:47;;;;;;;0.68;0.28;;;;;;;14.62;95.17;99688.97;4902864;29;20534;-74
2022/05/29 00:46:16;;;;;;;0.20;0.20;;;;;;;14.56;94.92;99694.19;4893378;29;20095;-75
2022/05/29 00:48:44;;;;;;;1.33;0.38;;;;;;;14.53;94.84;99688.09;4888680;29;20998;-74
2022/05/29 00:51:15;;;;;;;0.20;0.13;;;;;;;14.48;97.12;99695.03;4892768;29;20080;-74
2022/05/29 00:53:44;;;;;;;2.38;0.20;;;;;;;14.37;93.99;99695.97;4894315;29;20128;-75
2022/05/29 00:56:14;;;;;;;0.30;0.20;;;;;;;14.35;90.79;99709.84;4895393;29;20092;-75
2022/05/29 00:58:43;;;;;;;1.17;0.20;;;;;;;14.30;92.99;99715.06;4894018;29;20121;-75
2022/05/29 01:01:12;;;;;;;0.35;0.13;;;;;;;14.21;91.11;99715.09;4900850;29;20056;-76
2022/05/29 01:03:41;;;;;;;0.95;0.22;;;;;;;14.14;91.11;99723.78;4892277;29;20052;-74
2022/05/29 01:06:10;;;;;;;0.43;0.20;;;;;;;14.04;90.40;99721.19;4890017;29;20049;-74
2022/05/29 01:08:40;;;;;;;0.45;0.10;;;;;;;13.99;91.51;99722.91;4891887;29;20053;-74
2022/05/29 01:11:24;;;;;;;0.40;0.10;;;;;;;13.94;91.53;99723.78;4894033;29;20585;-74
2022/05/29 01:14:15;;;;;;;0.20;0.10;;;;;;;13.88;91.44;99719.47;4894342;29;20063;-75
2022/05/29 01:16:55;;;;;;;0.32;0.20;;;;;;;13.94;95.01;99718.59;4894059;29;20053;-75
2022/05/29 01:19:49;;;;;;;0.10;0.10;;;;;;;13.96;95.36;99732.47;4882848;29;20487;-75
2022/05/29 01:22:33;;;;;;;1.08;0.20;;;;;;;13.87;92.04;99725.53;4891266;29;20104;-74
2022/05/29 01:25:20;;;;;;;0.17;0.13;;;;;;;13.74;89.53;99731.59;4884713;29;20144;-77
2022/05/29 01:28:11;;;;;;;0.40;0.08;;;;;;;13.74;89.71;99731.59;4888698;29;20049;-74
2022/05/29 01:30:49;;;;;;;1.63;0.10;;;;;;;13.71;87.26;99747.19;4888897;29;20057;-74
2022/05/29 01:33:26;;;;;;;0.13;0.10;;;;;;;13.72;86.56;99743.72;4892546;29;20105;-74
2022/05/29 01:36:02;;;;;;;0.40;0.15;;;;;;;13.70;85.40;99745.44;4888701;29;20051;-76
2022/05/29 01:38:35;;;;;;;0.05;0.00;;;;;;;13.69;88.06;99741.97;4889130;28;20060;-74
2022/05/29 01:41:10;;;;;;;0.40;0.10;;;;;;;13.74;87.73;99757.59;4886729;29;20055;-75
2022/05/29 01:43:56;;;;;;;1.08;0.10;;;;;;;13.75;85.64;99754.13;4898224;29;20064;-74
2022/05/29 01:46:35;;;;;;;0.45;0.20;;;;;;;13.76;85.98;99756.72;4884508;29;20099;-74
2022/05/29 01:49:13;;;;;;;1.17;0.10;;;;;;;13.80;86.92;99762.78;4892538;29;20084;-74
2022/05/29 01:51:49;;;;;;;0.10;0.08;;;;;;;13.78;84.23;99767.13;4893902;29;20052;-76
2022/05/29 01:54:21;;;;;;;1.92;0.10;;;;;;;13.77;84.56;99760.22;4893378;29;20542;-74
2022/05/29 01:56:52;;;;;;;0.93;0.13;;;;;;;13.80;85.49;99768.00;4892993;29;20528;-74
2022/05/29 01:59:31;;;;;;;0.20;0.10;;;;;;;13.79;85.51;99771.47;4885572;29;20499;-75
2022/05/29 02:02:05;;;;;;;0.38;0.28;;;;;;;13.76;84.13;99772.31;4899193;29;20479;-74
2022/05/29 02:04:36;;;;;;;0.47;0.10;;;;;;;13.71;84.00;99771.44;4893646;29;20076;-75
2022/05/29 02:10:01;;;;;;;2.65;0.28;;;;;;;13.58;77.75;99786.19;4890505;29;20170;-75
2022/05/29 02:12:32;;;;;;;0.20;0.20;;;;;;;13.55;78.45;99783.56;4887052;29;20045;-76
2022/05/29 02:15:08;;;;;;;0.00;0.00;;;;;;;13.58;78.96;99788.78;4889625;29;20041;-76
2022/05/29 02:17:42;;;;;;;0.30;0.15;;;;;;;13.55;77.62;99793.94;4893391;29;20096;-75
2022/05/29 02:20:15;;;;;;;0.10;0.00;;;;;;;13.42;77.74;99807.78;4889830;29;20128;-81
2022/05/29 02:22:48;;;;;;;0.82;0.10;;;;;;;13.36;78.00;99818.19;4901704;29;20472;-78
2022/05/29 02:25:22;;;;;;;0.30;0.10;;;;;;;13.26;78.56;99821.56;4883710;29;20045;-79
2022/05/29 02:27:54;;;;;;;0.43;0.20;;;;;;;13.10;78.38;99820.63;4892609;29;20285;-78
2022/05/29 02:30:29;;;;;;;0.25;0.17;;;;;;;13.06;80.10;99830.16;4892917;29;20057;-76
2022/05/29 02:33:06;;;;;;;0.30;0.10;;;;;;;12.93;81.11;99833.53;4889661;29;20112;-79
2022/05/29 02:35:39;;;;;;;0.77;0.30;;;;;;;12.90;81.22;99836.13;4885703;29;20052;-75
2022/05/29 02:38:09;;;;;;;;;;;;;;;12.82;81.75;99835.22;4885222;29;20091;-75
2022/05/29 02:40:49;;;;;;;0.32;0.20;;;;;;;12.85;83.96;99845.59;4885781;29;19928;-77
2022/05/29 02:43:23;;;;;;;0.10;0.10;;;;;;;12.78;84.29;99853.38;4895099;29;20048;-76
2022/05/29 02:45:57;;;;;;;0.25;0.10;;;;;;;12.66;84.20;99855.00;4898190;29;20053;-76
2022/05/29 02:48:32;;;;;;;0.00;0.00;;;;;;;12.66;85.46;99850.69;4896210;29;20063;-76
2022/05/29 02:51:08;;;;;;;0.30;0.10;;;;;;;12.68;87.40;99864.53;4896774;29;20079;-75
2022/05/29 02:53:42;;;;;;;0.10;0.10;;;;;;;12.57;88.00;99873.97;4893937;29;20567;-76
2022/05/29 02:56:11;;;;;;;0.20;0.10;;;;;;;12.52;87.68;99876.53;4896574;29;20100;-77
2022/05/29 02:58:42;;;;;;;0.63;0.10;;;;;;;12.55;88.38;99879.19;4894522;29;20052;-76
2022/05/29 03:01:33;;;;;;;0.10;0.10;;;;;;;12.55;88.98;99883.47;4902599;29;20131;-80
2022/05/29 03:04:29;;;;;;;0.43;0.10;;;;;;;12.53;89.54;99895.59;4891129;29;20468;-76
2022/05/29 03:07:04;;;;;;;0.32;0.25;;;;;;;12.51;89.33;99886.94;4886581;29;20525;-75
2022/05/29 03:09:46;;;;;;;0.15;0.10;;;;;;;12.51;90.94;99890.38;4895361;29;20052;-80
2022/05/29 03:12:32;;;;;;;1.00;0.10;;;;;;;12.48;91.61;99892.06;4896521;29;21136;-75
2022/05/29 03:15:10;;;;;;;0.20;0.10;;;;;;;12.43;91.16;99909.34;4889606;29;20101;-77
2022/05/29 03:17:46;;;;;;;0.03;0.00;;;;;;;12.35;92.05;99904.09;4883717;29;20114;-77
2022/05/29 03:20:23;;;;;;;0.52;0.40;;;;;;;12.30;93.42;99924.81;4886362;29;20063;-75
2022/05/29 03:23:00;;;;;;;0.13;0.13;;;;;;;12.27;92.75;99913.53;4905856;29;20083;-76
2022/05/29 03:25:33;;;;;;;0.10;0.10;;;;;;;12.22;94.28;99920.41;4879776;29;20089;-76
2022/05/29 03:28:04;;;;;;;0.93;0.10;;;;;;;12.21;93.83;99918.63;4882384;29;20092;-76
2022/05/29 03:30:36;;;;;;;0.10;0.00;;;;;;;12.12;93.54;99929.81;4890510;29;20049;-79
2022/05/29 03:33:12;;;;;;;0.00;0.00;;;;;;;12.14;95.24;99936.75;4885519;29;20068;-78
2022/05/29 03:36:03;;;;;;;0.30;0.10;;;;;;;12.12;95.20;99941.06;4888175;29;20072;-77
2022/05/29 03:38:32;;;;;;;0.30;0.10;;;;;;;12.15;95.97;99945.41;4884160;28;20049;-77
2022/05/29 03:41:00;;;;;;;0.20;0.10;;;;;;;12.18;95.61;99939.38;4883841;29;20095;-76
2022/05/29 03:43:29;;;;;;;0.20;0.10;;;;;;;12.19;95.63;99946.31;4897925;29;20450;-76
2022/05/29 03:45:57;;;;;;;0.85;0.22;;;;;;;12.16;96.16;99944.53;4892088;29;20519;-81
2022/05/29 03:48:27;;;;;;;0.22;0.20;;;;;;;12.13;96.97;99953.16;4889466;29;20504;-80
2022/05/29 03:50:56;;;;;;;0.10;0.10;;;;;;;12.13;97.73;99952.28;4886734;29;20084;-78
2022/05/29 03:53:24;;;;;;;0.00;0.00;;;;;;;12.13;97.93;99954.88;4894445;29;20048;-79
2022/05/29 03:55:52;;;;;;;0.22;0.10;;;;;;;12.14;98.82;99959.22;4895063;29;20203;-78
2022/05/29 03:58:21;;;;;;;2.28;0.30;;;;;;;12.11;97.39;99961.78;4892955;29;20087;-78
2022/05/29 04:00:49;;;;;;;0.55;0.10;;;;;;;12.04;97.85;99967.75;4888291;29;20049;-78
2022/05/29 04:03:18;;;;;;;0.40;0.30;;;;;;;11.98;99.44;99978.03;4885370;29;20550;-76
2022/05/29 04:05:48;;;;;;;0.68;0.40;;;;;;;12.00;100.00;99978.94;4888512;29;20093;-76
2022/05/29 04:13:47;;;;;;;1.13;0.30;;;;;;;11.98;100.00;99991.00;4889170;29;20083;-77
2022/05/29 04:16:15;;;;;;;2.25;0.20;;;;;;;11.97;100.00;99989.28;4890184;29;20083;-76
2022/05/29 04:18:44;;;;;;;1.30;0.28;;;;;;;11.94;100.00;99990.13;4883217;29;20061;-77
2022/05/29 04:21:14;;;;;;;1.95;0.30;;;;;;;11.89;100.00;99994.38;4893593;29;20491;-74
2022/05/29 04:23:42;;;;;;;2.22;0.47;;;;;;;11.87;100.00;99991.75;4889844;29;20120;-75
2022/05/29 04:26:15;;;;;;;1.20;0.47;;;;;;;11.87;100.00;99996.06;4894241;29;20080;-75
2022/05/29 04:28:43;;;;;;;0.52;0.28;;;;;;;11.87;100.00;100002.13;4888948;29;20057;-74
2022/05/29 04:31:12;;;;;;;0.28;0.10;;;;;;;11.87;100.00;100003.81;4893384;29;20044;-75
2022/05/29 04:33:41;;;;;;;0.20;0.20;;;;;;;11.86;100.00;100010.72;4892261;29;20053;-75
2022/05/29 04:36:09;;;;;;;0.55;0.28;;;;;;;11.84;100.00;100012.44;4891696;29;20073;-74
2022/05/29 04:38:40;;;;;;;0.35;0.10;;;;;;;11.84;100.00;100016.72;4898075;28;20085;-75
2022/05/29 04:41:10;;;;;;;2.72;0.32;;;;;;;11.83;100.00;100015.00;4893220;29;20105;-73
2022/05/29 04:43:39;;;;;;;0.73;0.20;;;;;;;11.82;100.00;100029.69;4905588;29;20052;-75
2022/05/29 04:46:07;;;;;;;0.32;0.20;;;;;;;11.82;100.00;100027.09;4893620;29;20052;-75
2022/05/29 04:48:36;;;;;;;2.95;0.47;;;;;;;11.81;100.00;100025.34;4882512;29;20057;-74
2022/05/29 04:51:07;;;;;;;1.15;0.40;;;;;;;11.83;100.00;100039.19;4889316;29;20049;-75
2022/05/29 04:53:36;;;;;;;2.42;0.45;;;;;;;11.83;100.00;100036.59;4881045;29;20049;-74
2022/05/29 04:56:07;;;;;;;0.10;0.10;;;;;;;11.84;100.00;100042.66;4894889;29;20448;-74
2022/05/29 04:58:35;;;;;;;0.22;0.15;;;;;;;11.85;100.00;100055.66;4894203;29;20147;-75
2022/05/29 05:01:05;;;;;;;2.08;0.47;;;;;;;11.75;100.00;100058.97;4893501;29;20128;-75
2022/05/29 05:03:34;;;;;;;0.20;0.20;;;;;;;11.77;100.00;100066.75;4891013;29;20181;-75
2022/05/29 05:06:02;;;;;;;0.20;0.10;;;;;;;11.77;100.00;100067.63;4882306;29;20136;-75
2022/05/29 05:08:31;;;;;;;0.70;0.40;;;;;;;11.78;100.00;100069.38;4891723;29;20104;-76
2022/05/29 05:10:59;;;;;;;0.52;0.20;;;;;;;11.78;100.00;100071.97;4893435;29;20045;-75
2022/05/29 05:13:29;;;;;;;1.13;0.52;;;;;;;11.74;100.00;100072.78;4881358;29;20056;-76
2022/05/29 05:16:02;;;;;;;1.67;0.38;;;;;;;11.73;100.00;100081.41;4893495;29;20112;-76
2022/05/29 05:18:29;;;;;;;;;;;;;;;11.72;100.00;100080.50;4893793;29;20092;-75
2022/05/29 05:20:58;;;;;;;0.73;0.38;;;;;;;11.74;100.00;100089.19;4891958;29;20018;-75
2022/05/29 05:23:28;;;;;;;1.08;0.10;;;;;;;11.75;100.00;100090.09;4899554;29;20084;-75
2022/05/29 05:25:57;;;;;;;0.47;0.20;;;;;;;11.74;100.00;100090.91;4891833;29;20057;-76
2022/05/29 05:28:25;;;;;;;0.70;0.40;;;;;;;11.74;100.00;100096.09;4892553;29;20049;-75
2022/05/29 05:30:56;;;;;;;0.63;0.50;;;;;;;11.74;100.00;100093.50;4892718;29;20116;-76
2022/05/29 05:33:26;;;;;;;0.65;0.30;;;;;;;11.73;100.00;100097.81;4896086;29;20116;-77
2022/05/29 05:35:55;;;;;;;1.00;0.50;;;;;;;11.69;100.00;100105.53;4899984;29;20140;-78
2022/05/29 05:38:24;;;;;;;0.70;0.50;;;;;;;11.67;100.00;100108.09;4895703;29;20140;-77
2022/05/29 05:40:53;;;;;;;0.65;0.40;;;;;;;11.71;100.00;100114.22;4903196;28;20067;-77
2022/05/29 05:43:21;;;;;;;0.88;0.52;;;;;;;11.70;100.00;100113.34;4902249;29;20087;-77
2022/05/29 05:45:49;;;;;;;0.93;0.57;;;;;;;11.72;100.00;100121.97;4903919;29;20081;-76
2022/05/29 05:48:20;;;;;;;1.08;0.65;;;;;;;11.66;100.00;100119.31;4907517;29;20123;-77
2022/05/29 05:50:48;;;;;;;0.65;0.55;;;;;;;11.64;100.00;100117.56;4904873;29;20048;-79
2022/05/29 05:53:16;;;;;;;0.60;0.40;;;;;;;11.66;100.00;100121.91;4906746;29;20132;-78
2022/05/29 05:55:45;;;;;;;1.13;0.45;;;;;;;11.68;100.00;100135.75;4903754;29;20075;-78
2022/05/29 05:58:13;;;;;;;1.65;0.60;;;;;;;11.69;100.00;100137.50;4907357;29;20052;-79
2022/05/29 06:00:44;;;;;;;0.88;0.50;;;;;;;11.70;100.00;100135.78;4898109;29;20057;-79
2022/05/29 06:03:13;;;;;;;0.60;0.30;;;;;;;11.67;100.00;100143.50;4889640;29;20109;-79
2022/05/29 06:05:43;;;;;;;1.25;0.63;;;;;;;11.68;100.00;100145.22;4891769;29;20057;-80
2022/05/29 06:08:12;;;;;;;1.85;0.95;;;;;;;11.69;100.00;100157.38;4900386;29;20576;-79
2022/05/29 06:10:40;;;;;;;0.68;0.52;;;;;;;11.71;100.00;100156.53;4895495;29;20535;-79
2022/05/29 06:13:10;;;;;;;0.80;0.50;;;;;;;11.74;100.00;100169.53;4906298;29;20111;-79
2022/05/29 06:15:38;;;;;;;0.35;0.22;;;;;;;11.77;100.00;100166.09;4895484;29;20056;-80
2022/05/29 06:18:07;;;;;;;1.40;0.68;;;;;;;11.77;100.00;100173.03;4896367;29;20056;-80
2022/05/29 06:20:35;;;;;;;0.95;0.57;;;;;;;11.77;100.00;100175.59;4892590;29;20088;-80
2022/05/29 06:23:06;;;;;;;0.75;0.40;;;;;;;11.73;100.00;100175.56;4908338;29;20053;-79
2022/05/29 06:25:34;;;;;;;0.50;0.20;;;;;;;11.73;100.00;100178.16;4890076;29;20076;-80
2022/05/29 06:28:03;;;;;;;0.32;0.30;;;;;;;11.74;100.00;100189.41;4897046;29;20059;-80
2022/05/29 06:30:32;;;;;;;1.20;0.40;;;;;;;11.76;100.00;100190.28;4892124;29;20084;-80
2022/05/29 06:33:01;;;;;;;0.50;0.30;;;;;;;11.81;100.00;100195.56;4899751;29;20045;-80
2022/05/29 06:35:30;;;;;;;0.77;0.20;;;;;;;11.86;100.00;100199.94;4896344;29;20040;-79
2022/05/29 06:37:58;;;;;;;1.05;0.32;;;;;;;11.87;100.00;100199.16;4901535;29;20751;-79
2022/05/29 06:40:28;;;;;;;0.32;0.32;;;;;;;11.92;100.00;100218.22;4905255;28;20060;-79
2022/05/29 06:42:57;;;;;;;1.45;0.57;;;;;;;11.97;100.00;100220.03;4906960;29;20084;-79
2022/05/29 06:45:25;;;;;;;0.65;0.40;;;;;;;11.98;100.00;100224.34;4906523;29;20048;-79
2022/05/29 06:47:54;;;;;;;1.27;0.47;;;;;;;11.94;100.00;100223.44;4905320;29;20056;-79
2022/05/29 06:50:23;;;;;;;2.53;0.47;;;;;;;11.95;100.00;100225.19;4906520;29;20496;-79
2022/05/29 06:52:51;;;;;;;0.55;0.40;;;;;;;11.99;100.00;100239.06;4894107;29;20061;-79
2022/05/29 06:55:21;;;;;;;1.25;0.32;;;;;;;12.00;100.00;100233.88;4881813;29;20056;-79
2022/05/29 06:57:52;;;;;;;0.20;0.20;;;;;;;12.01;100.00;100246.03;4889351;29;20049;-79
2022/05/29 07:08:43;;;;;;;3.58;0.60;;;;;;;12.03;100.00;100269.41;4905393;29;20123;-79
2022/05/29 07:11:15;;;;;;;5.00;0.43;;;;;;;11.92;100.00;100249.34;4906334;29;20542;-79
2022/05/29 07:13:46;;;;;;;0.52;0.40;;;;;;;12.03;100.00;100272.00;4904149;29;20127;-78
2022/05/29 07:16:15;;;;;;;0.40;0.40;;;;;;;12.03;100.00;100277.19;4880143;29;20301;-78
2022/05/29 07:18:43;;;;;;;0.10;0.10;;;;;;;11.99;100.00;100275.38;4887436;29;20143;-77
2022/05/29 07:21:12;;;;;;;0.73;0.20;;;;;;;12.02;100.00;100286.66;4883888;29;20644;-77
2022/05/29 07:23:40;;;;;;;0.10;0.10;;;;;;;12.03;100.00;100297.91;4897369;29;20041;-76
2022/05/29 07:26:09;;;;;;;0.10;0.10;;;;;;;12.02;100.00;100298.75;4900174;29;20397;-76
2022/05/29 07:28:37;;;;;;;0.03;0.00;;;;;;;12.03;100.00;100306.56;4895067;29;20046;-77
2022/05/29 07:31:07;;;;;;;0.00;0.00;;;;;;;12.04;100.00;100310.03;4896841;29;20052;-77
2022/05/29 07:33:38;;;;;;;0.08;0.08;;;;;;;12.05;100.00;100322.13;4882942;29;20053;-77
2022/05/29 07:36:10;;;;;;;0.20;0.00;;;;;;;12.08;100.00;100319.59;4898459;29;20058;-78
2022/05/29 07:38:38;;;;;;;0.10;0.10;;;;;;;12.11;100.00;100322.25;4897496;29;20044;-79
2022/05/29 07:43:49;;;;;;;0.47;0.27;;;;;;;12.16;100.00;100338.75;4905249;29;20049;-78
2022/05/29 07:46:19;;;;;;;0.20;0.10;;;;;;;12.16;100.00;100338.75;4895768;29;20707;-78
2022/05/29 07:48:48;;;;;;;0.85;0.10;;;;;;;12.19;100.00;100346.59;4892638;29;20579;-78
2022/05/29 07:51:16;;;;;;;0.30;0.13;;;;;;;12.22;100.00;100350.94;4888996;29;20045;-78
2022/05/29 07:53:45;;;;;;;0.22;0.10;;;;;;;12.24;100.00;100354.44;4882960;29;20465;-78
2022/05/29 07:56:16;;;;;;;0.20;0.20;;;;;;;12.25;100.00;100358.78;4895891;29;20048;-78
2022/05/29 07:58:46;;;;;;;0.10;0.10;;;;;;;12.26;100.00;100374.38;4884791;29;20144;-78
2022/05/29 08:01:15;;;;;;;2.60;0.20;;;;;;;12.27;100.00;100375.25;4900963;29;20491;-78
2022/05/29 08:03:46;;;;;;;1.75;0.35;;;;;;;12.29;100.00;100382.19;4886803;29;20059;-78
2022/05/29 08:06:15;;;;;;;0.70;0.30;;;;;;;12.30;100.00;100386.56;4886358;29;20486;-78
2022/05/29 08:08:44;;;;;;;1.92;0.17;;;;;;;12.31;100.00;100385.69;4895452;29;20108;-79
2022/05/29 08:11:14;;;;;;;1.55;0.17;;;;;;;12.33;100.00;100391.78;4888516;29;20072;-80
2022/05/29 08:13:43;;;;;;;0.10;0.10;;;;;;;12.33;100.00;100394.38;4888972;29;20112;-80
2022/05/29 08:16:16;;;;;;;2.35;0.20;;;;;;;12.33;100.00;100402.16;4884715;29;20085;-80
2022/05/29 08:18:46;;;;;;;0.47;0.20;;;;;;;12.33;100.00;100401.28;4888061;29;20041;-80
2022/05/29 08:21:15;;;;;;;0.25;0.17;;;;;;;12.33;100.00;100406.47;4894384;29;20523;-80
2022/05/29 08:30:37;;;;;;;1.00;0.28;;;;;;;12.34;100.00;100416.00;4896812;29;20055;-79
2022/05/29 08:32:06;;;;;;;0.25;0.15;;;;;;;12.33;100.00;100433.28;4863071;29;20139;-80
2022/05/29 08:34:37;;;;;;;0.30;0.28;;;;;;;12.34;100.00;100435.03;4894123;29;20112;-80
2022/05/29 08:37:06;;;;;;;1.08;0.30;;;;;;;12.34;100.00;100445.41;4891712;29;20053;-79
2022/05/29 08:39:35;;;;;;;0.43;0.20;;;;;;;12.33;100.00;100451.44;4891196;28;20112;-80
2022/05/29 08:42:04;;;;;;;1.35;0.47;;;;;;;12.31;100.00;100460.94;4895088;29;20048;-81
2022/05/29 08:44:41;;;;;;;0.40;0.20;;;;;;;12.30;100.00;100461.78;4901972;29;20044;-81
2022/05/29 08:47:10;;;;;;;1.25;0.40;;;;;;;12.30;100.00;100474.75;4892141;29;20063;-80
2022/05/29 08:49:44;;;;;;;0.20;0.20;;;;;;;12.29;100.00;100469.53;4894865;29;20056;-80
2022/05/29 08:52:25;;;;;;;1.00;0.38;;;;;;;12.30;100.00;100481.63;4894695;29;20113;-80
2022/05/29 08:54:58;;;;;;;0.85;0.40;;;;;;;12.30;100.00;100485.13;4894781;29;20147;-80
2022/05/29 08:57:54;;;;;;;0.43;0.22;;;;;;;12.31;100.00;100488.59;4893347;29;20116;-80
2022/05/29 09:00:32;;;;;;;0.30;0.20;;;;;;;12.31;100.00;100486.88;4890713;29;20056;-80
2022/05/29 09:03:14;;;;;;;0.80;0.35;;;;;;;12.32;100.00;100499.00;4893412;29;20562;-80
2022/05/29 09:05:48;;;;;;;1.60;0.27;;;;;;;12.33;100.00;100508.53;4882323;29;20090;-80
2022/05/29 09:08:22;;;;;;;0.30;0.30;;;;;;;12.34;100.00;100515.44;4902792;29;21026;-80
2022/05/29 09:10:56;;;;;;;0.25;0.20;;;;;;;12.34;100.00;100515.44;4907605;29;20789;-80
2022/05/29 09:13:31;;;;;;;0.25;0.22;;;;;;;12.33;100.00;100526.69;4899213;29;20044;-80
2022/05/29 09:16:05;;;;;;;0.95;0.28;;;;;;;12.32;100.00;100524.94;4891952;29;20052;-80
2022/05/29 09:18:38;;;;;;;3.42;0.45;;;;;;;12.31;100.00;100541.34;4891807;29;20087;-79
2022/05/29 09:21:12;;;;;;;;;;;;;;;12.30;100.00;100552.59;4897403;29;20155;-80
2022/05/29 09:23:46;;;;;;;0.20;0.20;;;;;;;12.30;100.00;100552.59;4901532;29;20082;-79
2022/05/29 09:26:20;;;;;;;0.55;0.30;;;;;;;12.31;100.00;100559.50;4887937;29;20076;-81
2022/05/29 09:28:48;;;;;;;0.95;0.30;;;;;;;12.31;100.00;100567.28;4888531;29;20116;-79
2022/05/29 09:31:19;;;;;;;0.40;0.40;;;;;;;12.30;100.00;100581.13;4893316;29;20156;-80
2022/05/29 09:33:48;;;;;;;0.10;0.10;;;;;;;12.30;100.00;100586.31;4887008;29;20100;-81
2022/05/29 09:36:26;;;;;;;0.68;0.68;;;;;;;12.28;100.00;100584.53;4887872;29;20107;-81
2022/05/29 09:39:00;;;;;;;0.82;0.30;;;;;;;12.27;100.00;100588.81;4891685;29;20118;-80
2022/05/29 09:41:31;;;;;;;1.55;0.50;;;;;;;12.26;100.00;100594.00;4897557;29;20125;-81
2022/05/29 09:44:12;;;;;;;1.63;0.60;;;;;;;12.25;100.00;100600.88;4881525;29;20112;-80
2022/05/29 09:46:42;;;;;;;0.93;0.10;;;;;;;12.26;100.00;100601.78;4892539;29;20083;-79
2022/05/29 09:52:12;;;;;;;5.05;0.32;;;;;;;12.24;100.00;100619.91;4892227;29;20514;-80
2022/05/29 09:54:45;;;;;;;0.73;0.15;;;;;;;12.22;100.00;100625.91;4891429;29;20096;-80
2022/05/29 09:57:21;;;;;;;1.30;0.20;;;;;;;12.21;100.00;100630.22;4891889;29;20044;-80
2022/05/29 09:59:52;;;;;;;0.60;0.20;;;;;;;12.20;100.00;100640.56;4890315;29;20059;-80
2022/05/29 10:02:29;;;;;;;0.88;0.10;;;;;;;12.20;100.00;100645.75;4890418;29;20327;-80
2022/05/29 10:04:59;;;;;;;0.00;0.00;;;;;;;12.16;100.00;100637.00;4889676;29;20041;-80
2022/05/29 10:07:40;;;;;;;0.80;0.10;;;;;;;12.17;100.00;100635.31;4891773;29;20053;-79
2022/05/29 10:10:13;;;;;;;0.73;0.10;;;;;;;12.15;100.00;100640.47;4889083;29;20056;-79
2022/05/29 10:12:44;;;;;;;0.25;0.00;;;;;;;12.14;100.00;100649.09;4900450;29;20045;-79
2022/05/29 10:15:34;;;;;;;0.03;0.03;;;;;;;12.10;100.00;100653.34;4908988;29;20055;-80
2022/05/29 10:18:05;;;;;;;0.20;0.08;;;;;;;12.06;100.00;100656.69;4896492;29;20135;-80
2022/05/29 10:20:36;;;;;;;0.15;0.10;;;;;;;11.98;100.00;100653.09;4901540;29;20074;-80
2022/05/29 10:23:09;;;;;;;0.03;0.00;;;;;;;11.98;100.00;100660.88;4896486;29;20531;-80
2022/05/29 10:25:40;;;;;;;1.13;0.10;;;;;;;11.91;100.00;100667.63;4896324;29;20112;-80
2022/05/29 10:28:14;;;;;;;0.28;0.08;;;;;;;11.89;100.00;100669.31;4906685;29;20104;-80
2022/05/29 10:30:50;;;;;;;0.80;0.17;;;;;;;11.89;100.00;100673.63;4888949;29;20777;-79
2022/05/29 10:33:23;;;;;;;0.40;0.20;;;;;;;11.89;100.00;100679.66;4892125;29;20327;-80
2022/05/29 10:36:13;;;;;;;1.38;0.10;;;;;;;11.89;100.00;100684.00;4890944;29;20503;-80
2022/05/29 10:38:45;;;;;;;0.00;0.00;;;;;;;11.87;100.00;100691.72;4888719;29;20048;-80
2022/05/29 10:41:42;;;;;;;0.08;0.08;;;;;;;11.86;100.00;100689.91;4900827;28;20500;-80
2022/05/29 10:44:12;;;;;;;0.30;0.20;;;;;;;11.87;100.00;100699.50;4895689;29;20072;-80
2022/05/29 10:46:50;;;;;;;0.10;0.00;;;;;;;11.87;100.00;100706.38;4901731;29;20060;-80
2022/05/29 10:49:26;;;;;;;0.00;0.00;;;;;;;11.88;100.00;100711.59;4896498;29;20507;-79
2022/05/29 10:52:21;;;;;;;0.15;0.00;;;;;;;11.85;100.00;100716.69;4893072;29;20127;-79
2022/05/29 10:55:23;;;;;;;1.35;0.10;;;;;;;11.83;100.00;100713.19;4896945;29;20045;-79
2022/05/29 10:58:33;;;;;;;0.47;0.10;;;;;;;11.83;100.00;100718.38;4894540;29;20048;-79
2022/05/29 11:04:21;;;;;;;0.73;0.28;;;;;;;11.83;100.00;100728.75;4892740;29;20053;-79
2022/05/29 11:07:08;;;;;;;0.30;0.13;;;;;;;11.82;100.00;100724.41;4892756;29;20132;-80
2022/05/29 11:09:59;;;;;;;0.10;0.10;;;;;;;11.82;100.00;100733.88;4896495;29;20049;-80
2022/05/29 11:12:38;;;;;;;0.05;0.03;;;;;;;11.81;100.00;100743.38;4889178;29;20124;-80
2022/05/29 11:15:27;;;;;;;0.28;0.20;;;;;;;11.80;100.00;100736.47;4893943;29;20084;-80
2022/05/29 11:18:14;;;;;;;0.20;0.10;;;;;;;11.80;100.00;100749.41;4895316;29;20052;-79
2022/05/29 11:20:59;;;;;;;0.60;0.20;;;;;;;11.79;100.00;100750.25;4896305;29;20048;-80
2022/05/29 11:24:01;;;;;;;1.85;0.20;;;;;;;11.79;100.00;100750.25;4890449;29;20565;-79
2022/05/29 11:26:43;;;;;;;2.85;0.30;;;;;;;11.78;100.00;100753.69;4892883;29;20164;-79
2022/05/29 11:29:34;;;;;;;0.10;0.10;;;;;;;11.78;100.00;100753.69;4885677;29;20056;-79
2022/05/29 11:32:15;;;;;;;0.57;0.20;;;;;;;11.77;100.00;100762.28;4893173;29;20049;-80
2022/05/29 11:35:03;;;;;;;0.85;0.55;;;;;;;11.77;100.00;100759.69;4878837;29;20052;-79
2022/05/29 11:37:47;;;;;;;0.10;0.10;;;;;;;11.78;100.00;100764.06;4878862;29;20053;-80
2022/05/29 11:40:21;;;;;;;0.60;0.10;;;;;;;11.79;100.00;100763.22;4892372;28;20065;-79
2022/05/29 11:42:57;;;;;;;0.30;0.10;;;;;;;11.81;100.00;100766.72;4881402;29;20049;-80
2022/05/29 11:51:07;;;;;;;0.35;0.20;;;;;;;11.83;100.00;100775.41;4879550;29;20140;-80
2022/05/29 11:51:22;;;;;;;1.50;0.20;;;;;;;11.77;100.00;100790.81;4892538;29;20072;-79
2022/05/29 11:53:55;;;;;;;1.27;0.20;;;;;;;11.77;100.00;100788.22;4890199;29;20053;-79
2022/05/29 11:56:31;;;;;;;1.60;0.40;;;;;;;11.77;100.00;100795.13;4882344;29;20112;-80
2022/05/29 11:59:18;;;;;;;1.83;0.20;;;;;;;11.78;100.00;100802.94;4888179;29;20077;-78
2022/05/29 12:01:55;;;;;;;0.25;0.17;;;;;;;11.78;100.00;100805.53;4879748;29;20085;-79
2022/05/29 12:04:32;;;;;;;0.85;0.20;;;;;;;11.78;100.00;100800.34;4893321;29;20108;-80
2022/05/29 12:07:09;;;;;;;4.57;0.25;;;;;;;11.73;100.00;100796.78;4892676;29;20084;-79
2022/05/29 12:09:42;;;;;;;5.25;0.40;;;;;;;11.76;100.00;100812.41;4902166;29;20080;-78
2022/05/29 12:12:17;;;;;;;0.63;0.30;;;;;;;11.77;100.00;100813.25;4889857;29;20048;-78
2022/05/29 12:14:52;;;;;;;0.40;0.30;;;;;;;11.74;100.00;100817.53;4903625;29;20439;-79
2022/05/29 12:17:27;;;;;;;1.35;0.40;;;;;;;11.72;100.00;100821.78;4880745;29;20617;-80
2022/05/29 12:20:05;;;;;;;0.90;0.30;;;;;;;11.74;100.00;100824.44;4903185;29;20071;-79
2022/05/29 12:22:37;;;;;;;4.53;0.40;;;;;;;11.74;100.00;100829.63;4883491;29;20567;-78
2022/05/29 12:25:18;;;;;;;0.80;0.35;;;;;;;11.76;100.00;100833.13;4881308;29;20048;-78
2022/05/29 12:27:55;;;;;;;0.20;0.10;;;;;;;11.77;100.00;100840.06;4895050;29;20100;-78